createdAt,value
2017-09-22T00:00:49.626Z,994.61
2017-09-22T00:01:49.623Z,994.64
2017-09-22T00:02:49.619Z,994.64
2017-09-22T00:03:49.619Z,994.59
2017-09-22T00:04:49.612Z,994.63
2017-09-22T00:05:49.610Z,994.65
2017-09-22T00:06:49.611Z,994.65
2017-09-22T00:07:49.605Z,994.66
2017-09-22T00:08:49.601Z,994.63
2017-09-22T00:09:49.598Z,994.63
2017-09-22T00:10:49.592Z,994.63
2017-09-22T00:11:49.592Z,994.59
2017-09-22T00:12:49.592Z,994.63
2017-09-22T00:13:49.601Z,994.56
2017-09-22T00:14:49.582Z,994.59
2017-09-22T00:15:49.577Z,994.62
2017-09-22T00:16:49.575Z,994.63
2017-09-22T00:17:49.572Z,994.58
2017-09-22T00:18:49.568Z,994.59
2017-09-22T00:19:49.565Z,994.6
2017-09-22T00:20:49.563Z,994.59
2017-09-22T00:21:49.559Z,994.58
2017-09-22T00:22:49.555Z,994.59
2017-09-22T00:23:49.559Z,994.61
2017-09-22T00:24:49.549Z,994.61
2017-09-22T00:25:49.555Z,994.57
2017-09-22T00:26:49.547Z,994.62
2017-09-22T00:27:49.548Z,994.54
2017-09-22T00:28:49.546Z,994.59
2017-09-22T00:29:49.539Z,994.58
2017-09-22T00:30:49.530Z,994.59
2017-09-22T00:45:10.248Z,994.5
2017-09-22T00:46:09.849Z,994.53
2017-09-22T00:47:09.845Z,994.55
2017-09-22T00:48:09.842Z,994.52
2017-09-22T00:49:09.838Z,994.52
2017-09-22T00:50:10.412Z,994.52
2017-09-22T00:51:09.830Z,994.55
2017-09-22T00:52:09.828Z,994.53
2017-09-22T00:53:09.824Z,994.55
2017-09-22T00:54:09.820Z,994.54
2017-09-22T00:55:10.363Z,994.55
2017-09-22T00:56:09.854Z,994.6
2017-09-22T00:57:09.810Z,994.55
2017-09-22T00:58:09.806Z,994.53
2017-09-22T00:59:09.805Z,994.55
2017-09-22T01:00:10.221Z,994.55
2017-09-22T01:01:09.796Z,994.51
2017-09-22T01:02:09.795Z,994.51
2017-09-22T01:03:09.790Z,994.5
2017-09-22T01:04:09.787Z,994.47
2017-09-22T01:05:10.219Z,994.51
2017-09-22T01:06:09.782Z,994.46
2017-09-22T01:07:09.776Z,994.48
2017-09-22T01:08:09.772Z,994.43
2017-09-22T01:09:09.770Z,994.46
2017-09-22T01:10:10.125Z,994.47
2017-09-22T01:11:09.763Z,994.43
2017-09-22T01:12:09.759Z,994.45
2017-09-22T01:13:09.761Z,994.44
2017-09-22T01:14:09.753Z,994.47
2017-09-22T01:15:10.127Z,994.51
2017-09-22T01:16:09.745Z,994.44
2017-09-22T01:17:09.743Z,994.45
2017-09-22T01:18:09.740Z,994.44
2017-09-22T01:19:09.735Z,994.44
2017-09-22T01:20:10.078Z,994.44
2017-09-22T01:21:09.731Z,994.45
2017-09-22T01:22:09.728Z,994.45
2017-09-22T01:23:09.725Z,994.41
2017-09-22T01:24:09.719Z,994.38
2017-09-22T01:25:10.158Z,994.4
2017-09-22T01:26:09.712Z,994.39
2017-09-22T01:27:09.709Z,994.38
2017-09-22T01:28:09.705Z,994.38
2017-09-22T01:29:09.702Z,994.36
2017-09-22T01:30:09.988Z,994.36
2017-09-22T01:31:09.698Z,994.33
2017-09-22T01:32:09.692Z,994.32
2017-09-22T01:33:09.689Z,994.34
2017-09-22T01:34:09.685Z,994.34
2017-09-22T01:35:10.141Z,994.34
2017-09-22T01:36:09.678Z,994.34
2017-09-22T01:37:09.675Z,994.31
2017-09-22T01:38:09.670Z,994.33
2017-09-22T01:39:09.667Z,994.32
2017-09-22T01:40:10.054Z,994.29
2017-09-22T01:41:09.659Z,994.26
2017-09-22T01:42:09.657Z,994.33
2017-09-22T01:43:09.653Z,994.32
2017-09-22T01:44:09.649Z,994.33
2017-09-22T01:45:09.937Z,994.35
2017-09-22T01:46:09.642Z,994.34
2017-09-22T01:47:09.639Z,994.32
2017-09-22T01:48:09.636Z,994.32
2017-09-22T01:49:09.633Z,994.31
2017-09-22T01:50:10.089Z,994.32
2017-09-22T01:51:09.624Z,994.39
2017-09-22T01:52:09.620Z,994.33
2017-09-22T01:53:09.617Z,994.35
2017-09-22T01:54:09.614Z,994.33
2017-09-22T01:55:10.083Z,994.33
2017-09-22T01:56:09.606Z,994.27
2017-09-22T01:57:09.602Z,994.27
2017-09-22T01:58:09.598Z,994.33
2017-09-22T01:59:09.594Z,994.28
2017-09-22T02:00:09.878Z,994.32
2017-09-22T02:01:10.639Z,994.26
2017-09-22T02:02:09.585Z,994.28
2017-09-22T02:03:09.580Z,994.29
2017-09-22T02:04:09.581Z,994.24
2017-09-22T02:05:09.841Z,994.24
2017-09-22T02:06:09.570Z,994.2
2017-09-22T02:07:09.565Z,994.22
2017-09-22T02:08:09.561Z,994.24
2017-09-22T02:09:09.558Z,994.26
2017-09-22T02:10:09.977Z,994.22
2017-09-22T02:11:09.549Z,994.2
2017-09-22T02:12:09.544Z,994.2
2017-09-22T02:13:09.542Z,994.22
2017-09-22T02:14:09.538Z,994.23
2017-09-22T02:15:09.988Z,994.21
2017-09-22T02:16:09.537Z,994.17
2017-09-22T02:17:09.526Z,994.22
2017-09-22T02:18:09.531Z,994.21
2017-09-22T02:19:09.518Z,994.22
2017-09-22T02:20:09.792Z,994.23
2017-09-22T02:21:09.510Z,994.19
2017-09-22T02:22:09.506Z,994.2
2017-09-22T02:23:09.502Z,994.19
2017-09-22T02:24:09.500Z,994.18
2017-09-22T02:25:09.840Z,994.2
2017-09-22T02:26:09.495Z,994.16
2017-09-22T02:27:09.487Z,994.2
2017-09-22T02:28:09.485Z,994.2
2017-09-22T02:29:09.480Z,994.22
2017-09-22T02:30:09.851Z,994.22
2017-09-22T02:31:09.477Z,994.18
2017-09-22T02:32:09.468Z,994.21
2017-09-22T02:33:09.467Z,994.21
2017-09-22T02:34:09.462Z,994.17
2017-09-22T02:35:09.874Z,994.18
2017-09-22T02:36:09.455Z,994.17
2017-09-22T02:37:09.454Z,994.13
2017-09-22T02:38:09.447Z,994.14
2017-09-22T02:39:09.444Z,994.18
2017-09-22T02:40:09.800Z,994.17
2017-09-22T02:41:09.436Z,994.15
2017-09-22T02:42:09.432Z,994.13
2017-09-22T02:43:09.427Z,994.15
2017-09-22T02:44:09.424Z,994.13
2017-09-22T02:45:09.817Z,994.12
2017-09-22T02:46:09.418Z,994.15
2017-09-22T02:47:09.419Z,994.12
2017-09-22T02:48:09.410Z,994.17
2017-09-22T02:49:09.406Z,994.17
2017-09-22T02:50:09.681Z,994.17
2017-09-22T02:51:09.399Z,994.17
2017-09-22T02:52:09.394Z,994.19
2017-09-22T02:53:09.392Z,994.18
2017-09-22T02:54:09.386Z,994.17
2017-09-22T02:55:09.734Z,994.17
2017-09-22T02:56:09.379Z,994.16
2017-09-22T02:57:09.376Z,994.16
2017-09-22T02:58:09.372Z,994.16
2017-09-22T02:59:09.368Z,994.18
2017-09-22T03:00:09.698Z,994.17
2017-09-22T03:01:09.366Z,994.17
2017-09-22T03:02:09.364Z,994.16
2017-09-22T03:03:09.353Z,994.17
2017-09-22T03:04:09.349Z,994.15
2017-09-22T03:05:09.687Z,994.18
2017-09-22T03:06:09.343Z,994.18
2017-09-22T03:07:09.338Z,994.19
2017-09-22T03:08:09.334Z,994.17
2017-09-22T03:09:09.330Z,994.14
2017-09-22T03:10:09.643Z,994.18
2017-09-22T03:11:09.322Z,994.25
2017-09-22T03:12:09.325Z,994.24
2017-09-22T03:13:09.314Z,994.27
2017-09-22T03:14:09.316Z,994.26
2017-09-22T03:15:09.626Z,994.24
2017-09-22T03:16:09.302Z,994.25
2017-09-22T03:17:09.307Z,994.23
2017-09-22T03:18:09.294Z,994.26
2017-09-22T03:19:09.292Z,994.28
2017-09-22T03:20:09.573Z,994.27
2017-09-22T03:21:09.283Z,994.25
2017-09-22T03:22:09.280Z,994.24
2017-09-22T03:23:09.278Z,994.25
2017-09-22T03:24:09.272Z,994.26
2017-09-22T03:25:09.579Z,994.24
2017-09-22T03:26:09.263Z,994.27
2017-09-22T03:27:09.261Z,994.23
2017-09-22T03:28:09.264Z,994.21
2017-09-22T03:29:09.257Z,994.26
2017-09-22T03:30:09.590Z,994.24
2017-09-22T03:31:09.243Z,994.24
2017-09-22T03:32:10.497Z,994.26
2017-09-22T03:33:09.234Z,994.25
2017-09-22T03:34:09.230Z,994.26
2017-09-22T03:35:09.536Z,994.27
2017-09-22T03:36:09.227Z,994.25
2017-09-22T03:37:09.220Z,994.26
2017-09-22T03:38:09.213Z,994.27
2017-09-22T03:39:09.212Z,994.22
2017-09-22T03:40:09.616Z,994.19
2017-09-22T03:41:09.208Z,994.24
2017-09-22T03:42:09.196Z,994.2
2017-09-22T03:43:09.191Z,994.19
2017-09-22T03:44:09.188Z,994.22
2017-09-22T03:45:09.539Z,994.2
2017-09-22T03:46:09.175Z,994.2
2017-09-22T03:47:09.175Z,994.19
2017-09-22T03:48:09.168Z,994.14
2017-09-22T03:49:09.164Z,994.19
2017-09-22T03:50:09.492Z,994.16
2017-09-22T03:51:09.160Z,994.2
2017-09-22T03:52:09.154Z,994.16
2017-09-22T03:53:09.147Z,994.17
2017-09-22T03:54:09.140Z,994.18
2017-09-22T03:55:09.439Z,994.19
2017-09-22T03:56:09.132Z,994.18
2017-09-22T03:57:09.126Z,994.18
2017-09-22T03:58:09.122Z,994.16
2017-09-22T03:59:09.119Z,994.2
2017-09-22T04:00:09.440Z,994.22
2017-09-22T04:01:09.107Z,994.15
2017-09-22T04:02:09.134Z,994.23
2017-09-22T04:03:09.098Z,994.2
2017-09-22T04:04:09.094Z,994.22
2017-09-22T04:05:09.389Z,994.23
2017-09-22T04:06:09.085Z,994.26
2017-09-22T04:07:09.080Z,994.25
2017-09-22T04:08:09.074Z,994.18
2017-09-22T04:09:09.069Z,994.16
2017-09-22T04:10:09.378Z,994.18
2017-09-22T04:11:09.060Z,994.22
2017-09-22T04:12:09.055Z,994.21
2017-09-22T04:13:09.050Z,994.23
2017-09-22T04:14:09.045Z,994.23
2017-09-22T04:15:09.384Z,994.22
2017-09-22T04:16:09.035Z,994.2
2017-09-22T04:17:09.030Z,994.21
2017-09-22T04:18:09.025Z,994.2
2017-09-22T04:19:09.020Z,994.19
2017-09-22T04:20:09.348Z,994.17
2017-09-22T04:21:09.011Z,994.15
2017-09-22T04:22:09.004Z,994.14
2017-09-22T04:23:09.000Z,994.13
2017-09-22T04:24:08.994Z,994.12
2017-09-22T04:25:09.235Z,994.12
2017-09-22T04:26:08.985Z,994.08
2017-09-22T04:27:08.979Z,994.13
2017-09-22T04:28:08.974Z,994.08
2017-09-22T04:29:08.972Z,994.08
2017-09-22T04:30:09.194Z,994.08
2017-09-22T04:31:08.958Z,994.06
2017-09-22T04:32:08.954Z,994.1
2017-09-22T04:33:08.948Z,994.12
2017-09-22T04:34:08.946Z,994.11
2017-09-22T04:35:09.305Z,994.13
2017-09-22T04:36:08.933Z,994.14
2017-09-22T04:37:08.965Z,994.14
2017-09-22T04:38:08.923Z,994.17
2017-09-22T04:39:08.918Z,994.15
2017-09-22T04:40:09.224Z,994.18
2017-09-22T04:41:08.909Z,994.22
2017-09-22T04:42:08.903Z,994.22
2017-09-22T04:43:08.899Z,994.21
2017-09-22T04:44:08.893Z,994.21
2017-09-22T04:45:09.174Z,994.25
2017-09-22T04:46:08.900Z,994.3
2017-09-22T04:47:08.880Z,994.26
2017-09-22T04:48:08.875Z,994.26
2017-09-22T04:49:08.871Z,994.24
2017-09-22T04:50:09.071Z,994.2
2017-09-22T04:51:08.862Z,994.3
2017-09-22T04:52:08.855Z,994.23
2017-09-22T04:53:08.851Z,994.27
2017-09-22T04:54:08.846Z,994.29
2017-09-22T04:55:09.140Z,994.28
2017-09-22T04:56:08.835Z,994.33
2017-09-22T04:57:08.833Z,994.34
2017-09-22T04:58:08.826Z,994.33
2017-09-22T04:59:08.820Z,994.33
2017-09-22T05:00:09.127Z,994.35
2017-09-22T05:01:08.816Z,994.35
2017-09-22T05:02:08.808Z,994.33
2017-09-22T05:03:08.804Z,994.32
2017-09-22T05:04:08.805Z,994.32
2017-09-22T05:05:09.017Z,994.34
2017-09-22T05:06:08.786Z,994.34
2017-09-22T05:07:08.780Z,994.41
2017-09-22T05:08:08.776Z,994.4
2017-09-22T05:09:08.772Z,994.41
2017-09-22T05:10:09.049Z,994.41
2017-09-22T05:11:08.766Z,994.4
2017-09-22T05:12:08.758Z,994.39
2017-09-22T05:13:08.752Z,994.4
2017-09-22T05:14:08.748Z,994.4
2017-09-22T05:15:09.080Z,994.45
2017-09-22T05:16:08.749Z,994.47
2017-09-22T05:17:08.734Z,994.44
2017-09-22T05:18:08.730Z,994.43
2017-09-22T05:19:08.725Z,994.43
2017-09-22T05:20:09.033Z,994.44
2017-09-22T05:21:08.716Z,994.37
2017-09-22T05:22:08.713Z,994.41
2017-09-22T05:23:08.711Z,994.48
2017-09-22T05:24:08.702Z,994.43
2017-09-22T05:25:08.970Z,994.49
2017-09-22T05:26:08.694Z,994.46
2017-09-22T05:27:08.690Z,994.5
2017-09-22T05:28:08.689Z,994.48
2017-09-22T05:29:08.687Z,994.49
2017-09-22T05:30:09.058Z,994.48
2017-09-22T05:31:08.671Z,994.49
2017-09-22T05:32:08.668Z,994.53
2017-09-22T05:33:10.465Z,994.51
2017-09-22T05:34:08.659Z,994.53
2017-09-22T05:35:09.007Z,994.51
2017-09-22T05:36:08.649Z,994.51
2017-09-22T05:37:08.647Z,994.52
2017-09-22T05:38:08.646Z,994.48
2017-09-22T05:39:08.637Z,994.49
2017-09-22T05:40:08.968Z,994.46
2017-09-22T05:41:08.629Z,994.5
2017-09-22T05:42:08.621Z,994.51
2017-09-22T05:43:08.616Z,994.5
2017-09-22T05:44:08.612Z,994.47
2017-09-22T05:45:08.890Z,994.46
2017-09-22T05:46:08.601Z,994.49
2017-09-22T05:47:08.597Z,994.48
2017-09-22T05:48:08.592Z,994.57
2017-09-22T05:49:08.587Z,994.5
2017-09-22T05:50:08.847Z,994.53
2017-09-22T05:51:08.578Z,994.56
2017-09-22T05:52:08.571Z,994.59
2017-09-22T05:53:08.567Z,994.57
2017-09-22T05:54:08.562Z,994.61
2017-09-22T05:55:08.891Z,994.58
2017-09-22T05:56:08.553Z,994.56
2017-09-22T05:57:08.547Z,994.54
2017-09-22T05:58:08.544Z,994.54
2017-09-22T05:59:08.540Z,994.55
2017-09-22T06:00:08.800Z,994.6
2017-09-22T06:01:08.532Z,994.57
2017-09-22T06:02:08.526Z,994.59
2017-09-22T06:03:08.527Z,994.59
2017-09-22T06:04:08.517Z,994.54
2017-09-22T06:05:08.748Z,994.52
2017-09-22T06:06:08.509Z,994.6
2017-09-22T06:07:08.506Z,994.6
2017-09-22T06:08:08.507Z,994.57
2017-09-22T06:09:08.498Z,994.58
2017-09-22T06:10:08.651Z,994.64
2017-09-22T06:11:08.491Z,994.66
2017-09-22T06:12:08.488Z,994.68
2017-09-22T06:13:08.484Z,994.67
2017-09-22T06:14:08.480Z,994.7
2017-09-22T06:15:08.730Z,994.7
2017-09-22T06:16:08.476Z,994.7
2017-09-22T06:17:08.471Z,994.7
2017-09-22T06:18:08.472Z,994.72
2017-09-22T06:19:08.468Z,994.72
2017-09-22T06:20:08.679Z,994.75
2017-09-22T06:21:08.461Z,994.73
2017-09-22T06:22:08.458Z,994.74
2017-09-22T06:23:08.456Z,994.76
2017-09-22T06:24:08.455Z,994.72
2017-09-22T06:25:08.606Z,994.69
2017-09-22T06:26:08.460Z,994.71
2017-09-22T06:27:08.455Z,994.73
2017-09-22T06:28:08.455Z,994.72
2017-09-22T06:29:08.441Z,994.75
2017-09-22T06:30:08.563Z,994.76
2017-09-22T06:31:08.435Z,994.75
2017-09-22T06:32:08.433Z,994.75
2017-09-22T06:33:08.431Z,994.78
2017-09-22T06:34:10.486Z,994.76
2017-09-22T06:35:08.644Z,994.78
2017-09-22T06:36:08.426Z,994.75
2017-09-22T06:37:08.422Z,994.76
2017-09-22T06:38:08.424Z,994.7
2017-09-22T06:39:08.418Z,994.77
2017-09-22T06:40:08.697Z,994.76
2017-09-22T06:41:08.412Z,994.78
2017-09-22T06:42:08.411Z,994.76
2017-09-22T06:43:08.409Z,994.81
2017-09-22T06:44:08.408Z,994.75
2017-09-22T06:45:08.662Z,994.76
2017-09-22T06:46:08.401Z,994.79
2017-09-22T06:47:08.399Z,994.81
2017-09-22T06:48:08.396Z,994.77
2017-09-22T06:49:08.396Z,994.72
2017-09-22T06:50:08.664Z,994.77
2017-09-22T06:51:08.390Z,994.73
2017-09-22T06:52:08.384Z,994.73
2017-09-22T06:53:08.383Z,994.73
2017-09-22T06:54:08.380Z,994.75
2017-09-22T06:55:08.669Z,994.76
2017-09-22T06:56:08.383Z,994.71
2017-09-22T06:57:08.370Z,994.75
2017-09-22T06:58:08.365Z,994.74
2017-09-22T06:59:08.370Z,994.77
2017-09-22T07:00:08.554Z,994.82
2017-09-22T07:01:08.367Z,994.8
2017-09-22T07:02:08.366Z,994.8
2017-09-22T07:03:08.350Z,994.76
2017-09-22T07:04:08.358Z,994.79
2017-09-22T07:05:08.544Z,994.84
2017-09-22T07:06:08.341Z,994.81
2017-09-22T07:07:08.338Z,994.87
2017-09-22T07:08:08.335Z,994.82
2017-09-22T07:09:08.333Z,994.85
2017-09-22T07:10:08.505Z,994.89
2017-09-22T07:11:08.327Z,994.92
2017-09-22T07:12:08.324Z,994.96
2017-09-22T07:13:08.322Z,994.98
2017-09-22T07:14:08.318Z,994.99
2017-09-22T07:15:08.528Z,994.98
2017-09-22T07:16:08.314Z,994.96
2017-09-22T07:17:08.314Z,995.01
2017-09-22T07:18:08.314Z,995.02
2017-09-22T07:19:08.318Z,995.02
2017-09-22T07:20:08.439Z,995.06
2017-09-22T07:21:08.303Z,995.05
2017-09-22T07:22:08.301Z,995.05
2017-09-22T07:23:08.302Z,995.02
2017-09-22T07:24:08.297Z,995.05
2017-09-22T07:25:08.517Z,995.05
2017-09-22T07:26:08.293Z,995.09
2017-09-22T07:27:08.292Z,995.05
2017-09-22T07:28:08.290Z,995.07
2017-09-22T07:29:08.288Z,995.13
2017-09-22T07:30:08.415Z,995.06
2017-09-22T07:31:08.291Z,995.05
2017-09-22T07:32:08.285Z,995.07
2017-09-22T07:33:08.283Z,995.08
2017-09-22T07:34:08.281Z,995.02
2017-09-22T07:35:08.570Z,995.05
2017-09-22T07:36:08.282Z,995.05
2017-09-22T07:37:08.281Z,995.08
2017-09-22T07:38:08.280Z,995.07
2017-09-22T07:39:08.276Z,995.1
2017-09-22T07:40:08.627Z,995.1
2017-09-22T07:41:08.275Z,995.11
2017-09-22T07:42:08.274Z,995.07
2017-09-22T07:43:08.272Z,995.09
2017-09-22T07:44:08.271Z,995.08
2017-09-22T07:45:08.496Z,995.06
2017-09-22T07:46:08.270Z,995.11
2017-09-22T07:47:08.268Z,995.04
2017-09-22T07:48:08.268Z,995.07
2017-09-22T07:49:08.267Z,995.05
2017-09-22T07:50:08.716Z,995.03
2017-09-22T07:51:08.266Z,995.08
2017-09-22T07:52:08.266Z,995.05
2017-09-22T07:53:08.266Z,995.06
2017-09-22T07:54:08.264Z,995.04
2017-09-22T07:55:08.263Z,995.06
2017-09-22T07:56:08.265Z,995.08
2017-09-22T07:57:08.264Z,995.03
2017-09-22T07:58:08.263Z,995.07
2017-09-22T07:59:08.263Z,995.1
2017-09-22T08:00:08.608Z,995.12
2017-09-22T08:01:08.266Z,995.13
2017-09-22T08:02:08.264Z,995.12
2017-09-22T08:03:08.264Z,995.12
2017-09-22T08:04:08.265Z,995.11
2017-09-22T08:05:11.168Z,995.14
2017-09-22T08:06:08.267Z,995.11
2017-09-22T08:07:08.271Z,995.07
2017-09-22T08:08:08.272Z,995.1
2017-09-22T08:09:08.271Z,995.12
2017-09-22T08:10:08.527Z,995.09
2017-09-22T08:11:08.277Z,995.09
2017-09-22T08:12:08.282Z,995.09
2017-09-22T08:13:08.285Z,995.08
2017-09-22T08:14:08.286Z,995.07
2017-09-22T08:15:08.482Z,995.06
2017-09-22T08:16:08.292Z,995.08
2017-09-22T08:17:08.296Z,994.98
2017-09-22T08:18:08.300Z,995.08
2017-09-22T08:19:08.309Z,995.09
2017-09-22T08:20:08.509Z,995.13
2017-09-22T08:21:08.309Z,995.12
2017-09-22T08:22:08.317Z,995.1
2017-09-22T08:23:08.317Z,995.12
2017-09-22T08:24:08.319Z,995.08
2017-09-22T08:25:08.607Z,995.1
2017-09-22T08:26:08.324Z,995.11
2017-09-22T08:27:08.327Z,995.05
2017-09-22T08:28:08.327Z,995.02
2017-09-22T08:29:08.329Z,995.06
2017-09-22T08:30:08.542Z,995.09
2017-09-22T08:31:08.334Z,995.14
2017-09-22T08:32:08.337Z,995.07
2017-09-22T08:33:08.337Z,995.1
2017-09-22T08:34:08.337Z,995.09
2017-09-22T08:35:08.563Z,995.07
2017-09-22T08:36:08.342Z,995.06
2017-09-22T08:37:08.343Z,995.05
2017-09-22T08:38:08.355Z,995.04
2017-09-22T08:39:08.345Z,995.04
2017-09-22T08:40:08.551Z,995.04
2017-09-22T08:41:08.355Z,995.02
2017-09-22T08:42:08.357Z,994.93
2017-09-22T08:43:08.357Z,994.98
2017-09-22T08:44:08.357Z,994.93
2017-09-22T08:45:08.688Z,994.89
2017-09-22T08:46:08.367Z,994.91
2017-09-22T08:47:08.361Z,994.91
2017-09-22T08:48:08.360Z,994.94
2017-09-22T08:49:08.363Z,994.92
2017-09-22T08:50:08.592Z,994.95
2017-09-22T08:51:08.365Z,994.95
2017-09-22T08:52:08.366Z,994.93
2017-09-22T08:53:08.370Z,994.87
2017-09-22T08:54:08.370Z,994.91
2017-09-22T08:55:08.540Z,994.94
2017-09-22T08:56:08.374Z,994.96
2017-09-22T08:57:08.401Z,994.9
2017-09-22T08:58:08.377Z,994.86
2017-09-22T08:59:08.379Z,994.83
2017-09-22T09:00:08.558Z,994.87
2017-09-22T09:01:08.381Z,994.9
2017-09-22T09:02:08.385Z,994.89
2017-09-22T09:03:08.384Z,994.92
2017-09-22T09:04:08.387Z,994.85
2017-09-22T09:05:08.598Z,994.88
2017-09-22T09:06:09.455Z,994.85
2017-09-22T09:07:08.391Z,994.91
2017-09-22T09:08:08.393Z,994.89
2017-09-22T09:09:08.395Z,994.85
2017-09-22T09:10:08.642Z,994.83
2017-09-22T09:11:08.399Z,994.83
2017-09-22T09:12:08.401Z,994.9
2017-09-22T09:13:08.404Z,994.88
2017-09-22T09:14:08.406Z,994.86
2017-09-22T09:15:08.644Z,994.9
2017-09-22T09:16:08.409Z,994.85
2017-09-22T09:17:08.410Z,994.82
2017-09-22T09:18:08.414Z,994.84
2017-09-22T09:19:08.414Z,994.82
2017-09-22T09:20:08.745Z,994.82
2017-09-22T09:21:08.419Z,994.89
2017-09-22T09:22:08.420Z,994.9
2017-09-22T09:23:08.421Z,994.89
2017-09-22T09:24:08.423Z,994.92
2017-09-22T09:25:08.641Z,994.91
2017-09-22T09:26:08.424Z,994.9
2017-09-22T09:27:08.429Z,994.91
2017-09-22T09:28:08.428Z,994.83
2017-09-22T09:29:08.438Z,994.82
2017-09-22T09:30:08.620Z,994.83
2017-09-22T09:31:08.441Z,994.82
2017-09-22T09:32:08.445Z,994.79
2017-09-22T09:33:08.448Z,994.75
2017-09-22T09:34:08.447Z,994.78
2017-09-22T09:35:08.717Z,994.79
2017-09-22T09:36:08.448Z,994.79
2017-09-22T09:37:08.443Z,994.77
2017-09-22T09:38:08.445Z,994.77
2017-09-22T09:39:08.456Z,994.75
2017-09-22T09:40:08.607Z,994.74
2017-09-22T09:41:08.453Z,994.77
2017-09-22T09:42:08.450Z,994.8
2017-09-22T09:43:08.453Z,994.78
2017-09-22T09:44:08.460Z,994.79
2017-09-22T09:45:08.706Z,994.78
2017-09-22T09:46:08.458Z,994.75
2017-09-22T09:47:08.459Z,994.77
2017-09-22T09:48:08.469Z,994.76
2017-09-22T09:49:08.464Z,994.76
2017-09-22T09:50:08.710Z,994.81
2017-09-22T09:51:08.469Z,994.81
2017-09-22T09:52:08.474Z,994.84
2017-09-22T09:53:08.472Z,994.85
2017-09-22T09:54:08.476Z,994.84
2017-09-22T09:55:08.725Z,994.82
2017-09-22T09:56:08.477Z,994.81
2017-09-22T09:57:08.477Z,994.77
2017-09-22T09:58:08.483Z,994.8
2017-09-22T09:59:08.481Z,994.77
2017-09-22T10:00:08.486Z,994.78
2017-09-22T10:01:08.488Z,994.76
2017-09-22T10:02:08.491Z,994.75
2017-09-22T10:03:08.581Z,994.8
2017-09-22T10:04:08.491Z,994.78
2017-09-22T10:05:08.762Z,994.76
2017-09-22T10:06:08.493Z,994.72
2017-09-22T10:07:08.494Z,994.78
2017-09-22T10:08:08.500Z,994.75
2017-09-22T10:09:08.523Z,994.75
2017-09-22T10:10:08.753Z,994.71
2017-09-22T10:11:08.513Z,994.77
2017-09-22T10:12:08.506Z,994.74
2017-09-22T10:13:08.508Z,994.74
2017-09-22T10:14:08.508Z,994.73
2017-09-22T10:15:08.770Z,994.71
2017-09-22T10:16:08.511Z,994.72
2017-09-22T10:17:08.515Z,994.72
2017-09-22T10:18:08.516Z,994.71
2017-09-22T10:19:08.521Z,994.68
2017-09-22T10:20:08.814Z,994.7
2017-09-22T10:21:08.537Z,994.69
2017-09-22T10:22:08.532Z,994.67
2017-09-22T10:23:08.533Z,994.69
2017-09-22T10:24:08.528Z,994.69
2017-09-22T10:25:08.762Z,994.72
2017-09-22T10:26:08.534Z,994.71
2017-09-22T10:27:08.537Z,994.7
2017-09-22T10:28:08.536Z,994.71
2017-09-22T10:29:08.540Z,994.66
2017-09-22T10:30:08.784Z,994.67
2017-09-22T10:31:08.540Z,994.68
2017-09-22T10:32:08.544Z,994.66
2017-09-22T10:33:08.551Z,994.66
2017-09-22T10:34:08.547Z,994.7
2017-09-22T10:35:08.860Z,994.67
2017-09-22T10:36:08.552Z,994.71
2017-09-22T10:37:08.806Z,994.67
2017-09-22T10:38:08.554Z,994.69
2017-09-22T10:39:08.558Z,994.69
2017-09-22T10:40:08.868Z,994.67
2017-09-22T10:41:08.565Z,994.67
2017-09-22T10:42:08.562Z,994.7
2017-09-22T10:43:08.567Z,994.68
2017-09-22T10:44:08.567Z,994.73
2017-09-22T10:45:08.843Z,994.68
2017-09-22T10:46:08.571Z,994.74
2017-09-22T10:47:08.578Z,994.71
2017-09-22T10:48:08.577Z,994.72
2017-09-22T10:49:08.579Z,994.71
2017-09-22T10:50:08.900Z,994.73
2017-09-22T10:51:08.584Z,994.71
2017-09-22T10:52:13.688Z,994.73
2017-09-22T10:53:08.585Z,994.7
2017-09-22T10:54:08.588Z,994.7
2017-09-22T10:55:08.885Z,994.69
2017-09-22T10:56:08.591Z,994.72
2017-09-22T10:57:08.599Z,994.69
2017-09-22T10:58:08.598Z,994.7
2017-09-22T10:59:08.597Z,994.67
2017-09-22T11:00:08.905Z,994.68
2017-09-22T11:01:08.602Z,994.69
2017-09-22T11:02:08.603Z,994.67
2017-09-22T11:03:08.606Z,994.67
2017-09-22T11:04:08.629Z,994.66
2017-09-22T11:05:08.953Z,994.63
2017-09-22T11:06:08.611Z,994.6
2017-09-22T11:07:08.615Z,994.57
2017-09-22T11:08:08.616Z,994.56
2017-09-22T11:09:08.617Z,994.63
2017-09-22T11:10:08.974Z,994.66
2017-09-22T11:11:08.623Z,994.67
2017-09-22T11:12:08.623Z,994.64
2017-09-22T11:13:08.626Z,994.63
2017-09-22T11:14:08.628Z,994.65
2017-09-22T11:15:08.926Z,994.61
2017-09-22T11:16:08.632Z,994.59
2017-09-22T11:17:08.634Z,994.64
2017-09-22T11:18:08.637Z,994.65
2017-09-22T11:19:08.638Z,994.59
2017-09-22T11:20:08.969Z,994.61
2017-09-22T11:21:08.643Z,994.62
2017-09-22T11:22:08.645Z,994.62
2017-09-22T11:23:08.647Z,994.6
2017-09-22T11:24:08.649Z,994.6
2017-09-22T11:25:08.903Z,994.58
2017-09-22T11:26:08.657Z,994.58
2017-09-22T11:27:08.661Z,994.62
2017-09-22T11:28:08.658Z,994.58
2017-09-22T11:29:08.661Z,994.57
2017-09-22T11:30:08.969Z,994.59
2017-09-22T11:31:08.668Z,994.56
2017-09-22T11:32:08.671Z,994.54
2017-09-22T11:33:08.672Z,994.54
2017-09-22T11:34:08.674Z,994.53
2017-09-22T11:35:08.893Z,994.48
2017-09-22T11:36:08.678Z,994.48
2017-09-22T11:37:08.686Z,994.45
2017-09-22T11:38:08.684Z,994.4
2017-09-22T11:39:08.687Z,994.4
2017-09-22T11:40:08.898Z,994.35
2017-09-22T11:41:08.690Z,994.41
2017-09-22T11:42:08.694Z,994.37
2017-09-22T11:43:08.696Z,994.38
2017-09-22T11:44:08.697Z,994.41
2017-09-22T11:45:08.948Z,994.38
2017-09-22T11:46:08.702Z,994.36
2017-09-22T11:47:08.705Z,994.34
2017-09-22T11:48:08.710Z,994.33
2017-09-22T11:49:08.711Z,994.35
2017-09-22T11:50:08.934Z,994.39
2017-09-22T11:51:08.716Z,994.38
2017-09-22T11:52:08.716Z,994.34
2017-09-22T11:53:08.769Z,994.35
2017-09-22T11:54:08.722Z,994.33
2017-09-22T11:55:08.975Z,994.29
2017-09-22T11:56:08.726Z,994.34
2017-09-22T11:57:08.728Z,994.33
2017-09-22T11:58:08.731Z,994.31
2017-09-22T11:59:08.732Z,994.3
2017-09-22T12:00:09.034Z,994.27
2017-09-22T12:01:08.737Z,994.29
2017-09-22T12:02:08.739Z,994.3
2017-09-22T12:03:08.741Z,994.3
2017-09-22T12:04:08.744Z,994.27
2017-09-22T12:05:08.746Z,994.25
2017-09-22T12:06:08.748Z,994.27
2017-09-22T12:07:08.751Z,994.23
2017-09-22T12:08:10.056Z,994.24
2017-09-22T12:09:08.756Z,994.28
2017-09-22T12:10:09.095Z,994.28
2017-09-22T12:11:08.760Z,994.29
2017-09-22T12:12:08.763Z,994.26
2017-09-22T12:13:08.766Z,994.28
2017-09-22T12:14:08.768Z,994.29
2017-09-22T12:15:08.966Z,994.24
2017-09-22T12:16:08.772Z,994.26
2017-09-22T12:17:08.775Z,994.22
2017-09-22T12:18:08.777Z,994.22
2017-09-22T12:19:08.781Z,994.21
2017-09-22T12:20:09.142Z,994.2
2017-09-22T12:21:08.785Z,994.22
2017-09-22T12:22:08.791Z,994.22
2017-09-22T12:23:08.797Z,994.24
2017-09-22T12:24:08.794Z,994.18
2017-09-22T12:25:09.113Z,994.17
2017-09-22T12:26:08.799Z,994.19
2017-09-22T12:27:08.801Z,994.21
2017-09-22T12:28:08.803Z,994.19
2017-09-22T12:29:08.806Z,994.24
2017-09-22T12:30:09.090Z,994.21
2017-09-22T12:31:08.812Z,994.23
2017-09-22T12:32:08.814Z,994.24
2017-09-22T12:33:08.817Z,994.21
2017-09-22T12:34:08.820Z,994.21
2017-09-22T12:35:09.164Z,994.22
2017-09-22T12:36:08.827Z,994.21
2017-09-22T12:37:08.827Z,994.26
2017-09-22T12:38:08.830Z,994.21
2017-09-22T12:39:08.832Z,994.24
2017-09-22T12:40:09.176Z,994.22
2017-09-22T12:41:08.839Z,994.2
2017-09-22T12:42:08.843Z,994.25
2017-09-22T12:43:08.850Z,994.24
2017-09-22T12:44:08.857Z,994.24